PWSweather.com
Personal Weather Stations
Station Observations
AF1HS
North Haven, CT 06473

North Haven, CT 06473

Lat: 41.3733, Lon: -72.8413

Elevation: 85.3

Station Type: Oregon Scientific WMR968

http://www.af1hs.com/wx/index.php

Latest ConditionsUpdated 8:30:46 PM EDT Thursday, Jul 27, 2017
Currently Today's Max Today's Min Today's Average
Temperature 69.1°F20.6°C 72.4°F22.4°C 59.2°F15.1°C 68.5°F20.3°C
Dew Point 69.1°F20.6°C 72.2°F22.3°C 59.2°F15.1°C 68.4°F20.2°C
Winds 2.2 mph S3.5 kmh S 5.1 mph SSW8.2 kmh SSW - 1.7 mph 2.7 kmh
Wind Gusts 4.9 mph7.9 kmh 10.5 mph16.9 kmh - -
Humidity 100% 100% 96% 100%
Pressure 29.74 in1007.1 mb 29.97 in1014.9 mb 29.74 in1007.1 mb -
Hour Temp Dew Point Humidity Winds Wind Gusts Pressure Precip Precip Rate Daily Precip Total
08:30 PM 69.1°F20.6°C 69.1°F20.6°C 100% 2.2 mph S3.5 kmh S 4.9 mph7.9 kmh 29.74 in1007.1 mb - 0.00 in0.0 mm 0.00 in0.0 mm
08:20 PM 69.4°F20.8°C 69.4°F20.8°C 100% 4.2 mph S6.8 kmh S 6.3 mph10.1 kmh 29.74 in1007.1 mb - 0.00 in0.0 mm 0.00 in0.0 mm
08:10 PM 69.6°F20.9°C 69.6°F20.9°C 100% 4.6 mph S7.4 kmh S 8.0 mph12.9 kmh 29.77 in1008.1 mb - 0.00 in0.0 mm 0.00 in0.0 mm
08:00 PM 69.9°F21.1°C 69.9°F21.1°C 100% 3.6 mph SSW5.8 kmh SSW 7.6 mph12.2 kmh 29.77 in1008.1 mb - 0.00 in0.0 mm 0.00 in0.0 mm
07:50 PM 70.1°F21.2°C 70.1°F21.2°C 100% 5.0 mph S8.0 kmh S 7.6 mph12.2 kmh 29.77 in1008.1 mb - 0.00 in0.0 mm 0.00 in0.0 mm
07:40 PM 70.3°F21.3°C 70.3°F21.3°C 100% 5.1 mph SSW8.2 kmh SSW 8.7 mph14.0 kmh 29.74 in1007.1 mb - 0.00 in0.0 mm 0.00 in0.0 mm
07:30 PM 70.5°F21.4°C 70.5°F21.4°C 100% 4.2 mph SSW6.8 kmh SSW 8.3 mph13.4 kmh 29.74 in1007.1 mb - 0.00 in0.0 mm 0.00 in0.0 mm
07:20 PM 70.7°F21.5°C 70.7°F21.5°C 100% 4.0 mph S6.4 kmh S 10.5 mph16.9 kmh 29.74 in1007.1 mb - 0.00 in0.0 mm 0.00 in0.0 mm
07:10 PM 70.8°F21.6°C 70.8°F21.6°C 100% 4.9 mph S7.9 kmh S 10.1 mph16.3 kmh 29.74 in1007.1 mb - 0.00 in0.0 mm 0.00 in0.0 mm
07:00 PM 70.6°F21.4°C 70.6°F21.4°C 100% 3.6 mph SSW5.8 kmh SSW 5.8 mph9.3 kmh 29.75 in1007.5 mb - 0.00 in0.0 mm 0.00 in0.0 mm
06:50 PM 70.5°F21.4°C 70.5°F21.4°C 100% 3.1 mph SW5.0 kmh SW 5.8 mph9.3 kmh 29.77 in1008.1 mb - 0.00 in0.0 mm 0.00 in0.0 mm
06:40 PM 70.5°F21.4°C 70.5°F21.4°C 100% 3.8 mph S6.1 kmh S 7.6 mph12.2 kmh 29.77 in1008.1 mb - 0.00 in0.0 mm 0.00 in0.0 mm
06:30 PM 70.2°F21.2°C 70.2°F21.2°C 100% 3.6 mph S5.8 kmh S 7.6 mph12.2 kmh 29.75 in1007.5 mb - 0.00 in0.0 mm 0.00 in0.0 mm
06:20 PM 69.8°F21.0°C 69.8°F21.0°C 100% 2.2 mph S3.5 kmh S 4.5 mph7.2 kmh 29.74 in1007.1 mb - 0.00 in0.0 mm 0.00 in0.0 mm
06:10 PM 69.8°F21.0°C 69.8°F21.0°C 100% 1.2 mph S1.9 kmh S 6.3 mph10.1 kmh 29.77 in1008.1 mb - 0.00 in0.0 mm 0.00 in0.0 mm
06:00 PM 70.0°F21.1°C 70.0°F21.1°C 100% 0.6 mph SE1.0 kmh SE 3.6 mph5.8 kmh 29.77 in1008.1 mb - 0.00 in0.0 mm 0.00 in0.0 mm
05:50 PM 70.2°F21.2°C 70.2°F21.2°C 100% 1.3 mph S2.1 kmh S 3.1 mph5.0 kmh 29.77 in1008.1 mb - 0.00 in0.0 mm 0.00 in0.0 mm
05:40 PM 70.2°F21.2°C 70.2°F21.2°C 100% 0.4 mph SE0.6 kmh SE 4.0 mph6.4 kmh 29.77 in1008.1 mb - 0.00 in0.0 mm 0.00 in0.0 mm
05:30 PM 70.4°F21.3°C 70.4°F21.3°C 100% 1.2 mph SSE1.9 kmh SSE 4.0 mph6.4 kmh 29.77 in1008.1 mb - 0.00 in0.0 mm 0.00 in0.0 mm
05:20 PM 70.6°F21.4°C 70.6°F21.4°C 100% 1.0 mph SSE1.6 kmh SSE 4.9 mph7.9 kmh 29.77 in1008.1 mb - 0.00 in0.0 mm 0.00 in0.0 mm
05:10 PM 71.0°F21.7°C 71.0°F21.7°C 100% 3.3 mph S5.3 kmh S 5.8 mph9.3 kmh 29.80 in1009.1 mb - 0.00 in0.0 mm 0.00 in0.0 mm
05:00 PM 70.9°F21.6°C 70.9°F21.6°C 100% 1.0 mph S1.6 kmh S 5.4 mph8.7 kmh 29.80 in1009.1 mb - 0.00 in0.0 mm 0.00 in0.0 mm
04:50 PM 71.0°F21.7°C 71.0°F21.7°C 100% 3.0 mph SSE4.8 kmh SSE 4.9 mph7.9 kmh 29.80 in1009.1 mb - 0.00 in0.0 mm 0.00 in0.0 mm
04:40 PM 71.2°F21.8°C 71.2°F21.8°C 100% 2.7 mph SE4.3 kmh SE 4.0 mph6.4 kmh 29.80 in1009.1 mb - 0.00 in0.0 mm 0.00 in0.0 mm
04:30 PM 71.4°F21.9°C 71.4°F21.9°C 100% 0.5 mph SE0.8 kmh SE 3.6 mph5.8 kmh 29.80 in1009.1 mb - 0.00 in0.0 mm 0.00 in0.0 mm
04:20 PM 71.6°F22.0°C 71.6°F22.0°C 100% 0.5 mph SSE0.8 kmh SSE 3.1 mph5.0 kmh 29.80 in1009.1 mb - 0.00 in0.0 mm 0.00 in0.0 mm
04:10 PM 72.0°F22.2°C 72.0°F22.2°C 100% 0.4 mph S0.6 kmh S -- 29.80 in1009.1 mb - 0.00 in0.0 mm 0.00 in0.0 mm
04:00 PM 72.2°F22.3°C 72.2°F22.3°C 100% 1.5 mph S2.4 kmh S 4.0 mph6.4 kmh 29.80 in1009.1 mb - 0.00 in0.0 mm 0.00 in0.0 mm
03:50 PM 71.9°F22.2°C 70.6°F21.4°C 96% 0.4 mph SSE0.6 kmh SSE 3.1 mph5.0 kmh 29.80 in1009.1 mb - 0.00 in0.0 mm 0.00 in0.0 mm
03:40 PM 72.4°F22.4°C 71.1°F21.7°C 96% 0.9 mph SSE1.4 kmh SSE 3.1 mph5.0 kmh 29.80 in1009.1 mb - 0.00 in0.0 mm 0.00 in0.0 mm
03:30 PM 72.2°F22.3°C 72.2°F22.3°C 100% 0.5 mph S0.8 kmh S 3.1 mph5.0 kmh 29.80 in1009.1 mb - 0.00 in0.0 mm 0.00 in0.0 mm
03:20 PM 71.8°F22.1°C 71.8°F22.1°C 100% 0.3 mph S0.5 kmh S 2.2 mph3.5 kmh 29.80 in1009.1 mb - 0.00 in0.0 mm 0.00 in0.0 mm
03:10 PM 71.6°F22.0°C 71.6°F22.0°C 100% 0.4 mph S0.6 kmh S 3.6 mph5.8 kmh 29.80 in1009.1 mb - 0.00 in0.0 mm 0.00 in0.0 mm
03:00 PM 70.8°F21.6°C 70.8°F21.6°C 100% 2.0 mph SW3.2 kmh SW 3.6 mph5.8 kmh 29.80 in1009.1 mb - 0.00 in0.0 mm 0.00 in0.0 mm
02:50 PM 70.7°F21.5°C 70.7°F21.5°C 100% 1.4 mph S2.3 kmh S 4.9 mph7.9 kmh 29.80 in1009.1 mb - 0.00 in0.0 mm 0.00 in0.0 mm
02:40 PM 70.9°F21.6°C 69.7°F20.9°C 96% 0.9 mph S1.4 kmh S 3.6 mph5.8 kmh 29.80 in1009.1 mb - 0.00 in0.0 mm 0.00 in0.0 mm
02:30 PM 69.0°F20.6°C 68.1°F20.1°C 97% 0.4 mph S0.6 kmh S 3.1 mph5.0 kmh 29.82 in1009.8 mb - 0.00 in0.0 mm 0.00 in0.0 mm
01:31 AM 59.2°F15.1°C 59.2°F15.1°C 100% Calm Calm -- 29.97 in1014.9 mb - 0.00 in0.0 mm 0.00 in0.0 mm
01:21 AM 59.4°F15.2°C 59.4°F15.2°C 100% Calm Calm -- 29.97 in1014.9 mb - 0.00 in0.0 mm 0.00 in0.0 mm
01:11 AM 59.3°F15.2°C 59.3°F15.2°C 100% Calm Calm -- 29.97 in1014.9 mb - 0.00 in0.0 mm 0.00 in0.0 mm
01:01 AM 59.4°F15.2°C 59.4°F15.2°C 100% Calm Calm -- 29.97 in1014.9 mb - 0.00 in0.0 mm 0.00 in0.0 mm
12:51 AM 59.4°F15.2°C 59.4°F15.2°C 100% Calm Calm -- 29.97 in1014.9 mb - 0.00 in0.0 mm 0.00 in0.0 mm
12:41 AM 59.4°F15.2°C 59.4°F15.2°C 100% Calm Calm -- 29.97 in1014.9 mb - 0.00 in0.0 mm 0.00 in0.0 mm
12:31 AM 59.5°F15.3°C 59.5°F15.3°C 100% Calm Calm -- 29.97 in1014.9 mb - 0.00 in0.0 mm 0.00 in0.0 mm
12:21 AM 59.5°F15.3°C 59.5°F15.3°C 100% Calm Calm -- 29.97 in1014.9 mb - 0.00 in0.0 mm 0.00 in0.0 mm
12:10 AM 59.7°F15.4°C 59.7°F15.4°C 100% Calm Calm -- 29.97 in1014.9 mb - 0.00 in0.0 mm 0.00 in0.0 mm